sensor_id;sensor_type;location;lat;lon;timestamp;pressure;altitude;pressure_sealevel;temperature;humidity
7662;BME280;30314;48.184;11.510;2023-11-21T00:02:18;95445.94;;;6.42;100.00
7662;BME280;30314;48.184;11.510;2023-11-21T00:04:45;95426.28;;;6.34;100.00
7662;BME280;30314;48.184;11.510;2023-11-21T00:07:12;95433.53;;;6.53;100.00
7662;BME280;30314;48.184;11.510;2023-11-21T00:09:38;95433.53;;;6.53;100.00
7662;BME280;30314;48.184;11.510;2023-11-21T00:12:05;95439.03;;;6.52;100.00
7662;BME280;30314;48.184;11.510;2023-11-21T00:14:32;95444.03;;;6.53;100.00
7662;BME280;30314;48.184;11.510;2023-11-21T00:16:59;95426.00;;;6.36;100.00
7662;BME280;30314;48.184;11.510;2023-11-21T00:19:26;95425.72;;;6.48;100.00
7662;BME280;30314;48.184;11.510;2023-11-21T00:21:53;95422.03;;;6.49;100.00
7662;BME280;30314;48.184;11.510;2023-11-21T00:24:20;95405.00;;;6.41;100.00
7662;BME280;30314;48.184;11.510;2023-11-21T00:26:46;95407.09;;;6.39;100.00
7662;BME280;30314;48.184;11.510;2023-11-21T00:29:15;95397.16;;;6.36;100.00
7662;BME280;30314;48.184;11.510;2023-11-21T00:31:44;95389.56;;;6.29;100.00
7662;BME280;30314;48.184;11.510;2023-11-21T00:34:12;95391.72;;;6.22;100.00
7662;BME280;30314;48.184;11.510;2023-11-21T00:36:39;95386.69;;;6.26;100.00
7662;BME280;30314;48.184;11.510;2023-11-21T00:39:06;95376.75;;;6.23;100.00
7662;BME280;30314;48.184;11.510;2023-11-21T00:41:34;95371.72;;;6.31;100.00
7662;BME280;30314;48.184;11.510;2023-11-21T00:44:00;95366.78;;;6.25;100.00
7662;BME280;30314;48.184;11.510;2023-11-21T00:46:28;95367.28;;;6.27;100.00
7662;BME280;30314;48.184;11.510;2023-11-21T00:48:55;95372.00;;;6.30;100.00
7662;BME280;30314;48.184;11.510;2023-11-21T00:51:22;95374.34;;;6.37;100.00
7662;BME280;30314;48.184;11.510;2023-11-21T00:53:49;95370.66;;;6.32;100.00
7662;BME280;30314;48.184;11.510;2023-11-21T00:56:16;95372.44;;;6.47;100.00
7662;BME280;30314;48.184;11.510;2023-11-21T00:58:42;95361.75;;;6.33;100.00
7662;BME280;30314;48.184;11.510;2023-11-21T01:01:12;95367.53;;;6.30;100.00
7662;BME280;30314;48.184;11.510;2023-11-21T01:03:39;95368.59;;;6.34;100.00
7662;BME280;30314;48.184;11.510;2023-11-21T01:06:06;95369.91;;;6.32;100.00
7662;BME280;30314;48.184;11.510;2023-11-21T01:08:34;95374.34;;;6.31;100.00
7662;BME280;30314;48.184;11.510;2023-11-21T01:11:01;95373.53;;;6.41;100.00
7662;BME280;30314;48.184;11.510;2023-11-21T01:13:27;95372.50;;;6.37;100.00
7662;BME280;30314;48.184;11.510;2023-11-21T01:15:55;95376.47;;;6.29;100.00
7662;BME280;30314;48.184;11.510;2023-11-21T01:18:22;95376.22;;;6.26;100.00
7662;BME280;30314;48.184;11.510;2023-11-21T01:20:52;95377.56;;;6.23;100.00
7662;BME280;30314;48.184;11.510;2023-11-21T01:23:21;95379.94;;;6.14;100.00
7662;BME280;30314;48.184;11.510;2023-11-21T01:25:49;95376.03;;;6.06;100.00
7662;BME280;30314;48.184;11.510;2023-11-21T01:28:15;95386.25;;;6.08;100.00
7662;BME280;30314;48.184;11.510;2023-11-21T01:30:42;95383.59;;;6.18;100.00
7662;BME280;30314;48.184;11.510;2023-11-21T01:33:08;95384.91;;;6.16;100.00
7662;BME280;30314;48.184;11.510;2023-11-21T01:35:36;95386.22;;;6.13;100.00
7662;BME280;30314;48.184;11.510;2023-11-21T01:38:02;95380.25;;;6.08;100.00
7662;BME280;30314;48.184;11.510;2023-11-21T01:40:30;95385.47;;;6.08;100.00
7662;BME280;30314;48.184;11.510;2023-11-21T01:42:57;95382.88;;;6.08;100.00
7662;BME280;30314;48.184;11.510;2023-11-21T01:45:25;95387.78;;;6.19;100.00
7662;BME280;30314;48.184;11.510;2023-11-21T01:47:52;95378.88;;;6.20;100.00
7662;BME280;30314;48.184;11.510;2023-11-21T01:50:24;95386.19;;;6.29;100.00
7662;BME280;30314;48.184;11.510;2023-11-21T01:52:52;95386.97;;;6.24;100.00
7662;BME280;30314;48.184;11.510;2023-11-21T01:55:19;95387.25;;;6.23;100.00
7662;BME280;30314;48.184;11.510;2023-11-21T01:57:55;95400.34;;;6.23;100.00
7662;BME280;30314;48.184;11.510;2023-11-21T02:00:23;95401.41;;;6.22;100.00
7662;BME280;30314;48.184;11.510;2023-11-21T02:02:51;95400.09;;;6.19;100.00
7662;BME280;30314;48.184;11.510;2023-11-21T02:05:18;95393.03;;;6.19;100.00
7662;BME280;30314;48.184;11.510;2023-11-21T02:07:46;95396.44;;;6.15;100.00
7662;BME280;30314;48.184;11.510;2023-11-21T02:10:16;95399.03;;;6.20;100.00
7662;BME280;30314;48.184;11.510;2023-11-21T02:12:43;95399.31;;;6.18;100.00
7662;BME280;30314;48.184;11.510;2023-11-21T02:15:13;95406.91;;;6.20;100.00
7662;BME280;30314;48.184;11.510;2023-11-21T02:17:53;95402.97;;;6.28;100.00
7662;BME280;30314;48.184;11.510;2023-11-21T02:20:22;95412.09;;;6.41;100.00
7662;BME280;30314;48.184;11.510;2023-11-21T02:22:52;95407.69;;;6.31;100.00
7662;BME280;30314;48.184;11.510;2023-11-21T02:25:27;95410.56;;;6.34;100.00
7662;BME280;30314;48.184;11.510;2023-11-21T02:27:56;95405.53;;;6.38;100.00
7662;BME280;30314;48.184;11.510;2023-11-21T02:30:23;95395.63;;;6.30;100.00
7662;BME280;30314;48.184;11.510;2023-11-21T02:32:51;95404.25;;;6.36;100.00
7662;BME280;30314;48.184;11.510;2023-11-21T02:35:24;95400.31;;;6.33;100.00
7662;BME280;30314;48.184;11.510;2023-11-21T02:37:53;95388.03;;;6.23;100.00
7662;BME280;30314;48.184;11.510;2023-11-21T02:40:20;95396.66;;;6.29;100.00
7662;BME280;30314;48.184;11.510;2023-11-21T02:42:48;95386.19;;;6.29;100.00
7662;BME280;30314;48.184;11.510;2023-11-21T02:45:15;95390.13;;;6.26;100.00
7662;BME280;30314;48.184;11.510;2023-11-21T02:47:45;95384.06;;;6.31;100.00
7662;BME280;30314;48.184;11.510;2023-11-21T02:50:13;95379.09;;;6.29;100.00
7662;BME280;30314;48.184;11.510;2023-11-21T02:52:40;95377.56;;;6.23;100.00
7662;BME280;30314;48.184;11.510;2023-11-21T02:55:06;95377.56;;;6.23;100.00
7662;BME280;30314;48.184;11.510;2023-11-21T02:57:33;95375.19;;;6.22;100.00
7662;BME280;30314;48.184;11.510;2023-11-21T03:00:00;95368.63;;;6.19;100.00
7662;BME280;30314;48.184;11.510;2023-11-21T03:02:27;95373.09;;;6.18;100.00
7662;BME280;30314;48.184;11.510;2023-11-21T03:04:54;95376.25;;;6.20;100.00
7662;BME280;30314;48.184;11.510;2023-11-21T03:07:21;95380.69;;;6.20;100.00
7662;BME280;30314;48.184;11.510;2023-11-21T03:09:48;95383.59;;;6.18;100.00
7662;BME280;30314;48.184;11.510;2023-11-21T03:12:14;95369.72;;;6.13;100.00
7662;BME280;30314;48.184;11.510;2023-11-21T03:14:42;95377.59;;;6.13;100.00
7662;BME280;30314;48.184;11.510;2023-11-21T03:17:09;95375.72;;;6.18;100.00
7662;BME280;30314;48.184;11.510;2023-11-21T03:19:35;95363.97;;;6.11;100.00
7662;BME280;30314;48.184;11.510;2023-11-21T03:22:02;95363.16;;;6.10;100.00
7662;BME280;30314;48.184;11.510;2023-11-21T03:24:30;95372.59;;;6.11;100.00
7662;BME280;30314;48.184;11.510;2023-11-21T03:26:58;95368.41;;;6.10;100.00
7662;BME280;30314;48.184;11.510;2023-11-21T03:29:25;95370.53;;;6.08;100.00
7662;BME280;30314;48.184;11.510;2023-11-21T03:31:51;95368.94;;;6.07;100.00
7662;BME280;30314;48.184;11.510;2023-11-21T03:34:27;95364.78;;;6.06;100.00
7662;BME280;30314;48.184;11.510;2023-11-21T03:36:54;95365.81;;;6.05;100.00
7662;BME280;30314;48.184;11.510;2023-11-21T03:39:21;95373.16;;;6.08;100.00
7662;BME280;30314;48.184;11.510;2023-11-21T03:41:48;95372.88;;;6.10;100.00
7662;BME280;30314;48.184;11.510;2023-11-21T03:44:15;95363.44;;;6.09;100.00
7662;BME280;30314;48.184;11.510;2023-11-21T03:46:42;95357.16;;;6.10;100.00
7662;BME280;30314;48.184;11.510;2023-11-21T03:49:10;95351.13;;;6.09;100.00
7662;BME280;30314;48.184;11.510;2023-11-21T03:51:37;95363.69;;;6.12;100.00
7662;BME280;30314;48.184;11.510;2023-11-21T03:54:04;95361.81;;;6.18;100.00
7662;BME280;30314;48.184;11.510;2023-11-21T03:56:30;95365.03;;;6.10;100.00
7662;BME280;30314;48.184;11.510;2023-11-21T03:58:57;95351.94;;;5.99;100.00
7662;BME280;30314;48.184;11.510;2023-11-21T04:01:24;95359.00;;;5.99;100.00
7662;BME280;30314;48.184;11.510;2023-11-21T04:03:51;95358.50;;;5.97;100.00
7662;BME280;30314;48.184;11.510;2023-11-21T04:06:18;95362.97;;;5.96;100.00
7662;BME280;30314;48.184;11.510;2023-11-21T04:08:45;95359.00;;;5.99;100.00
7662;BME280;30314;48.184;11.510;2023-11-21T04:11:12;95352.75;;;5.95;100.00
7662;BME280;30314;48.184;11.510;2023-11-21T04:13:39;95361.63;;;5.99;100.00
7662;BME280;30314;48.184;11.510;2023-11-21T04:16:08;95363.75;;;5.97;100.00
7662;BME280;30314;48.184;11.510;2023-11-21T04:18:36;95362.72;;;5.92;100.00
7662;BME280;30314;48.184;11.510;2023-11-21T04:21:07;95353.84;;;5.83;100.00
7662;BME280;30314;48.184;11.510;2023-11-21T04:23:35;95358.53;;;5.86;100.00
7662;BME280;30314;48.184;11.510;2023-11-21T04:26:01;95368.94;;;6.07;100.00
7662;BME280;30314;48.184;11.510;2023-11-21T04:28:29;95365.81;;;6.00;100.00
7662;BME280;30314;48.184;11.510;2023-11-21T04:30:55;95367.16;;;5.97;100.00
7662;BME280;30314;48.184;11.510;2023-11-21T04:33:22;95371.59;;;5.97;100.00
7662;BME280;30314;48.184;11.510;2023-11-21T04:35:49;95365.03;;;6.04;100.00
7662;BME280;30314;48.184;11.510;2023-11-21T04:38:16;95372.88;;;6.10;100.00
7662;BME280;30314;48.184;11.510;2023-11-21T04:40:42;95370.75;;;6.17;100.00
7662;BME280;30314;48.184;11.510;2023-11-21T04:43:09;95366.63;;;6.00;100.00
7662;BME280;30314;48.184;11.510;2023-11-21T04:45:36;95369.97;;;6.11;100.00
7662;BME280;30314;48.184;11.510;2023-11-21T04:48:02;95364.50;;;6.08;100.00
7662;BME280;30314;48.184;11.510;2023-11-21T04:50:30;95368.41;;;6.15;100.00
7662;BME280;30314;48.184;11.510;2023-11-21T04:52:57;95367.94;;;6.03;100.00
7662;BME280;30314;48.184;11.510;2023-11-21T04:55:23;95373.94;;;6.09;100.00
7662;BME280;30314;48.184;11.510;2023-11-21T04:57:50;95367.91;;;6.08;100.00
7662;BME280;30314;48.184;11.510;2023-11-21T05:00:17;95379.16;;;6.14;100.00
7662;BME280;30314;48.184;11.510;2023-11-21T05:02:43;95382.78;;;6.23;100.00
7662;BME280;30314;48.184;11.510;2023-11-21T05:05:11;95380.25;;;6.08;100.00
7662;BME280;30314;48.184;11.510;2023-11-21T05:07:41;95389.38;;;6.10;100.00
7662;BME280;30314;48.184;11.510;2023-11-21T05:10:09;95375.50;;;6.04;100.00
7662;BME280;30314;48.184;11.510;2023-11-21T05:12:39;95384.19;;;6.05;100.00
7662;BME280;30314;48.184;11.510;2023-11-21T05:15:07;95382.59;;;6.04;100.00
7662;BME280;30314;48.184;11.510;2023-11-21T05:17:38;95381.00;;;6.08;100.00
7662;BME280;30314;48.184;11.510;2023-11-21T05:20:10;95377.31;;;6.19;100.00
7662;BME280;30314;48.184;11.510;2023-11-21T05:22:37;95382.28;;;6.16;100.00
7662;BME280;30314;48.184;11.510;2023-11-21T05:25:05;95392.00;;;6.15;100.00
7662;BME280;30314;48.184;11.510;2023-11-21T05:27:32;95391.53;;;6.03;100.00
7662;BME280;30314;48.184;11.510;2023-11-21T05:29:58;95386.78;;;6.05;100.00
7662;BME280;30314;48.184;11.510;2023-11-21T05:32:25;95383.16;;;5.96;100.00
7662;BME280;30314;48.184;11.510;2023-11-21T05:34:53;95388.66;;;5.99;100.00
7662;BME280;30314;48.184;11.510;2023-11-21T05:37:20;95388.38;;;6.01;100.00
7662;BME280;30314;48.184;11.510;2023-11-21T05:39:46;95387.31;;;6.07;100.00
7662;BME280;30314;48.184;11.510;2023-11-21T05:42:13;95383.66;;;6.03;100.00
7662;BME280;30314;48.184;11.510;2023-11-21T05:44:42;95391.50;;;6.08;100.00
7662;BME280;30314;48.184;11.510;2023-11-21T05:47:09;95394.66;;;6.05;100.00
7662;BME280;30314;48.184;11.510;2023-11-21T05:49:36;95402.53;;;6.05;100.00
7662;BME280;30314;48.184;11.510;2023-11-21T05:52:03;95402.00;;;5.98;100.00
7662;BME280;30314;48.184;11.510;2023-11-21T05:54:32;95409.63;;;5.99;100.00
7662;BME280;30314;48.184;11.510;2023-11-21T05:56:59;95409.88;;;6.03;100.00
7662;BME280;30314;48.184;11.510;2023-11-21T05:59:26;95404.63;;;6.03;100.00
7662;BME280;30314;48.184;11.510;2023-11-21T06:01:53;95411.94;;;6.16;100.00
7662;BME280;30314;48.184;11.510;2023-11-21T06:04:20;95411.16;;;6.11;100.00
7662;BME280;30314;48.184;11.510;2023-11-21T06:06:51;95410.38;;;6.00;100.00
7662;BME280;30314;48.184;11.510;2023-11-21T06:09:19;95415.13;;;6.03;100.00
7662;BME280;30314;48.184;11.510;2023-11-21T06:11:46;95413.00;;;6.00;100.00
7662;BME280;30314;48.184;11.510;2023-11-21T06:14:12;95414.84;;;6.04;100.00
7662;BME280;30314;48.184;11.510;2023-11-21T06:16:39;95412.97;;;6.10;100.00
7662;BME280;30314;48.184;11.510;2023-11-21T06:19:07;95422.94;;;6.08;100.00
7662;BME280;30314;48.184;11.510;2023-11-21T06:21:34;95421.66;;;6.05;100.00
7662;BME280;30314;48.184;11.510;2023-11-21T06:24:02;95431.34;;;6.10;100.00
7662;BME280;30314;48.184;11.510;2023-11-21T06:26:28;95429.50;;;6.05;100.00
7662;BME280;30314;48.184;11.510;2023-11-21T06:28:55;95439.22;;;6.00;100.00
7662;BME280;30314;48.184;11.510;2023-11-21T06:31:23;95419.84;;;6.01;100.00
7662;BME280;30314;48.184;11.510;2023-11-21T06:33:50;95430.56;;;6.10;100.00
7662;BME280;30314;48.184;11.510;2023-11-21T06:36:18;95422.47;;;6.01;100.00
7662;BME280;30314;48.184;11.510;2023-11-21T06:38:45;95437.13;;;6.07;100.00
7662;BME280;30314;48.184;11.510;2023-11-21T06:41:12;95433.19;;;6.10;100.00
7662;BME280;30314;48.184;11.510;2023-11-21T06:43:42;95430.34;;;6.01;100.00
7662;BME280;30314;48.184;11.510;2023-11-21T06:46:13;95432.41;;;6.04;100.00
7662;BME280;30314;48.184;11.510;2023-11-21T06:48:42;95442.88;;;6.09;100.00
7662;BME280;30314;48.184;11.510;2023-11-21T06:51:09;95440.53;;;6.08;100.00
7662;BME280;30314;48.184;11.510;2023-11-21T06:53:36;95439.75;;;6.02;100.00
7662;BME280;30314;48.184;11.510;2023-11-21T06:56:05;95452.34;;;6.05;100.00
7662;BME280;30314;48.184;11.510;2023-11-21T06:58:41;95442.91;;;5.94;100.00
7662;BME280;30314;48.184;11.510;2023-11-21T07:01:08;95446.56;;;6.08;100.00
7662;BME280;30314;48.184;11.510;2023-11-21T07:03:35;95448.16;;;6.04;100.00
7662;BME280;30314;48.184;11.510;2023-11-21T07:06:04;95452.59;;;6.03;100.00
7662;BME280;30314;48.184;11.510;2023-11-21T07:08:31;95453.13;;;6.00;100.00
7662;BME280;30314;48.184;11.510;2023-11-21T07:10:58;95465.41;;;6.10;100.00
7662;BME280;30314;48.184;11.510;2023-11-21T07:13:24;95469.34;;;6.13;100.00
7662;BME280;30314;48.184;11.510;2023-11-21T07:15:52;95458.63;;;6.04;100.00
7662;BME280;30314;48.184;11.510;2023-11-21T07:18:19;95462.03;;;6.04;100.00
7662;BME280;30314;48.184;11.510;2023-11-21T07:20:45;95474.84;;;6.11;100.00
7662;BME280;30314;48.184;11.510;2023-11-21T07:23:12;95470.69;;;6.05;100.00
7662;BME280;30314;48.184;11.510;2023-11-21T07:25:39;95463.34;;;6.02;100.00
7662;BME280;30314;48.184;11.510;2023-11-21T07:28:07;95485.09;;;6.13;100.00
7662;BME280;30314;48.184;11.510;2023-11-21T07:30:34;95478.00;;;6.13;100.00
7662;BME280;30314;48.184;11.510;2023-11-21T07:33:00;95485.34;;;6.11;100.00
7662;BME280;30314;48.184;11.510;2023-11-21T07:35:27;95478.00;;;6.08;100.00
7662;BME280;30314;48.184;11.510;2023-11-21T07:37:53;95479.56;;;6.09;100.00
7662;BME280;30314;48.184;11.510;2023-11-21T07:40:20;95482.41;;;6.28;100.00
7662;BME280;30314;48.184;11.510;2023-11-21T07:42:48;95479.78;;;6.28;100.00
7662;BME280;30314;48.184;11.510;2023-11-21T07:45:16;95485.00;;;6.33;100.00
7662;BME280;30314;48.184;11.510;2023-11-21T07:47:43;95480.34;;;6.25;100.00
7662;BME280;30314;48.184;11.510;2023-11-21T07:50:10;95484.50;;;6.31;100.00
7662;BME280;30314;48.184;11.510;2023-11-21T07:52:37;95482.97;;;6.25;100.00
7662;BME280;30314;48.184;11.510;2023-11-21T07:55:04;95471.69;;;6.19;100.00
7662;BME280;30314;48.184;11.510;2023-11-21T07:57:30;95481.09;;;6.36;100.00
7662;BME280;30314;48.184;11.510;2023-11-21T07:59:57;95488.66;;;6.48;100.00
7662;BME280;30314;48.184;11.510;2023-11-21T08:02:24;95484.16;;;6.54;100.00
7662;BME280;30314;48.184;11.510;2023-11-21T08:04:51;95495.19;;;6.56;100.00
7662;BME280;30314;48.184;11.510;2023-11-21T08:07:18;95495.75;;;6.47;100.00
7662;BME280;30314;48.184;11.510;2023-11-21T08:09:44;95490.75;;;6.46;100.00
7662;BME280;30314;48.184;11.510;2023-11-21T08:12:12;95496.28;;;6.39;100.00
7662;BME280;30314;48.184;11.510;2023-11-21T08:14:39;95488.16;;;6.41;100.00
7662;BME280;30314;48.184;11.510;2023-11-21T08:17:07;95495.75;;;6.47;100.00
7662;BME280;30314;48.184;11.510;2023-11-21T08:19:33;95496.25;;;6.55;100.00
7662;BME280;30314;48.184;11.510;2023-11-21T08:22:00;95492.00;;;6.74;100.00
7662;BME280;30314;48.184;11.510;2023-11-21T08:24:27;95489.31;;;6.80;100.00
7662;BME280;30314;48.184;11.510;2023-11-21T08:26:55;95502.91;;;6.92;100.00
7662;BME280;30314;48.184;11.510;2023-11-21T08:29:22;95487.53;;;6.75;100.00
7662;BME280;30314;48.184;11.510;2023-11-21T08:31:49;95490.94;;;6.81;100.00
7662;BME280;30314;48.184;11.510;2023-11-21T08:34:16;95496.66;;;6.88;100.00
7662;BME280;30314;48.184;11.510;2023-11-21T08:36:43;95489.78;;;6.92;100.00
7662;BME280;30314;48.184;11.510;2023-11-21T08:39:10;95495.34;;;6.90;100.00
7662;BME280;30314;48.184;11.510;2023-11-21T08:41:36;95490.09;;;6.85;100.00
7662;BME280;30314;48.184;11.510;2023-11-21T08:44:03;95497.97;;;6.85;100.00
7662;BME280;30314;48.184;11.510;2023-11-21T08:46:33;95493.47;;;6.96;100.00
7662;BME280;30314;48.184;11.510;2023-11-21T08:49:01;95490.34;;;6.89;100.00
7662;BME280;30314;48.184;11.510;2023-11-21T08:51:27;95491.34;;;6.98;100.00
7662;BME280;30314;48.184;11.510;2023-11-21T08:53:54;95496.59;;;6.98;100.00
7662;BME280;30314;48.184;11.510;2023-11-21T08:56:21;95497.16;;;6.90;100.00
7662;BME280;30314;48.184;11.510;2023-11-21T08:58:48;95501.13;;;6.87;100.00
7662;BME280;30314;48.184;11.510;2023-11-21T09:01:14;95503.97;;;6.96;100.00
7662;BME280;30314;48.184;11.510;2023-11-21T09:03:41;95507.09;;;6.98;100.00
7662;BME280;30314;48.184;11.510;2023-11-21T09:06:08;95497.38;;;6.99;100.00
7662;BME280;30314;48.184;11.510;2023-11-21T09:08:36;95509.22;;;6.91;100.00
7662;BME280;30314;48.184;11.510;2023-11-21T09:11:04;95507.16;;;6.88;100.00
7662;BME280;30314;48.184;11.510;2023-11-21T09:13:30;95514.47;;;6.91;100.00
7662;BME280;30314;48.184;11.510;2023-11-21T09:15:57;95506.34;;;6.93;100.00
7662;BME280;30314;48.184;11.510;2023-11-21T09:18:24;95513.06;;;7.09;100.00
7662;BME280;30314;48.184;11.510;2023-11-21T09:20:50;95516.91;;;7.27;100.00
7662;BME280;30314;48.184;11.510;2023-11-21T09:23:17;95513.53;;;7.22;100.00
7662;BME280;30314;48.184;11.510;2023-11-21T09:25:44;95509.59;;;7.24;100.00
7662;BME280;30314;48.184;11.510;2023-11-21T09:28:12;95524.75;;;7.38;100.00
7662;BME280;30314;48.184;11.510;2023-11-21T09:30:39;95526.84;;;7.36;100.00
7662;BME280;30314;48.184;11.510;2023-11-21T09:33:06;95518.16;;;7.40;100.00
7662;BME280;30314;48.184;11.510;2023-11-21T09:35:33;95523.63;;;7.49;100.00
7662;BME280;30314;48.184;11.510;2023-11-21T09:38:00;95529.81;;;7.64;100.00
7662;BME280;30314;48.184;11.510;2023-11-21T09:40:28;95521.88;;;7.74;100.00
7662;BME280;30314;48.184;11.510;2023-11-21T09:42:58;95526.19;;;7.89;100.00
7662;BME280;30314;48.184;11.510;2023-11-21T09:45:29;95525.22;;;8.09;100.00
7662;BME280;30314;48.184;11.510;2023-11-21T09:47:58;95513.75;;;8.00;100.00
7662;BME280;30314;48.184;11.510;2023-11-21T09:50:25;95523.75;;;8.27;100.00
7662;BME280;30314;48.184;11.510;2023-11-21T09:55:26;95528.59;;;8.44;100.00
7662;BME280;30314;48.184;11.510;2023-11-21T09:57:56;95525.63;;;8.51;100.00
7662;BME280;30314;48.184;11.510;2023-11-21T10:00:23;95531.16;;;8.50;100.00
7662;BME280;30314;48.184;11.510;2023-11-21T10:02:50;95523.75;;;8.52;100.00
7662;BME280;30314;48.184;11.510;2023-11-21T10:05:19;95522.72;;;8.72;100.00
7662;BME280;30314;48.184;11.510;2023-11-21T10:07:46;95522.91;;;8.81;100.00
7662;BME280;30314;48.184;11.510;2023-11-21T10:10:15;95521.84;;;8.82;100.00
7662;BME280;30314;48.184;11.510;2023-11-21T10:12:49;95531.34;;;8.78;100.00
7662;BME280;30314;48.184;11.510;2023-11-21T10:15:16;95533.59;;;8.65;100.00
7662;BME280;30314;48.184;11.510;2023-11-21T10:17:44;95526.06;;;8.34;100.00
7662;BME280;30314;48.184;11.510;2023-11-21T10:20:11;95527.13;;;8.33;100.00
7662;BME280;30314;48.184;11.510;2023-11-21T10:22:41;95520.53;;;8.36;100.00
7662;BME280;30314;48.184;11.510;2023-11-21T10:25:11;95519.78;;;8.54;100.00
7662;BME280;30314;48.184;11.510;2023-11-21T10:27:41;95529.38;;;8.69;100.00
7662;BME280;30314;48.184;11.510;2023-11-21T10:30:11;95529.38;;;8.69;100.00
7662;BME280;30314;48.184;11.510;2023-11-21T10:32:42;95526.00;;;8.64;100.00
7662;BME280;30314;48.184;11.510;2023-11-21T10:35:10;95524.47;;;8.57;100.00
7662;BME280;30314;48.184;11.510;2023-11-21T10:37:40;95524.88;;;8.45;100.00
7662;BME280;30314;48.184;11.510;2023-11-21T10:40:08;95532.38;;;8.33;100.00
7662;BME280;30314;48.184;11.510;2023-11-21T10:42:39;95531.47;;;8.18;100.00
7662;BME280;30314;48.184;11.510;2023-11-21T10:45:08;95531.97;;;8.21;100.00
7662;BME280;30314;48.184;11.510;2023-11-21T10:47:42;95534.53;;;8.26;100.00
7662;BME280;30314;48.184;11.510;2023-11-21T10:50:10;95533.88;;;8.39;100.00
7662;BME280;30314;48.184;11.510;2023-11-21T10:52:41;95527.91;;;8.34;100.00
7662;BME280;30314;48.184;11.510;2023-11-21T10:55:17;95529.59;;;8.49;100.00
7662;BME280;30314;48.184;11.510;2023-11-21T10:57:48;95533.59;;;8.65;100.00
7662;BME280;30314;48.184;11.510;2023-11-21T11:00:16;95524.13;;;8.64;100.00
7662;BME280;30314;48.184;11.510;2023-11-21T11:02:47;95513.22;;;8.76;100.00
7662;BME280;30314;48.184;11.510;2023-11-21T11:05:19;95518.19;;;8.78;100.00
7662;BME280;30314;48.184;11.510;2023-11-21T11:08:07;95514.81;;;8.96;100.00
7662;BME280;30314;48.184;11.510;2023-11-21T11:10:35;95526.28;;;8.86;100.00
7662;BME280;30314;48.184;11.510;2023-11-21T11:13:02;95521.28;;;8.85;100.00
7662;BME280;30314;48.184;11.510;2023-11-21T11:15:28;95514.50;;;8.79;100.00
7662;BME280;30314;48.184;11.510;2023-11-21T11:17:55;95520.47;;;8.84;100.00
7662;BME280;30314;48.184;11.510;2023-11-21T11:20:27;95518.31;;;8.92;100.00
7662;BME280;30314;48.184;11.510;2023-11-21T11:26:05;95520.81;;;8.78;100.00
7662;BME280;30314;48.184;11.510;2023-11-21T11:28:50;95517.78;;;8.70;100.00
7662;BME280;30314;48.184;11.510;2023-11-21T11:31:36;95515.81;;;8.57;100.00
7662;BME280;30314;48.184;11.510;2023-11-21T11:34:31;95524.31;;;8.49;100.00
7662;BME280;30314;48.184;11.510;2023-11-21T11:37:04;95515.19;;;8.41;100.00
7662;BME280;30314;48.184;11.510;2023-11-21T11:39:35;95506.06;;;8.33;100.00
7662;BME280;30314;48.184;11.510;2023-11-21T11:42:06;95520.22;;;8.37;100.00
7662;BME280;30314;48.184;11.510;2023-11-21T11:44:59;95528.69;;;8.34;100.00
7662;BME280;30314;48.184;11.510;2023-11-21T11:47:30;95510.00;;;8.36;100.00
7662;BME280;30314;48.184;11.510;2023-11-21T11:50:06;95515.59;;;8.29;100.00
7662;BME280;30314;48.184;11.510;2023-11-21T11:52:48;95511.81;;;8.35;100.00
7662;BME280;30314;48.184;11.510;2023-11-21T11:55:18;95500.47;;;8.40;100.00
7662;BME280;30314;48.184;11.510;2023-11-21T11:57:49;95521.25;;;8.41;100.00
7662;BME280;30314;48.184;11.510;2023-11-21T12:02:58;95494.97;;;8.36;100.00
7662;BME280;30314;48.184;11.510;2023-11-21T12:05:26;95513.28;;;8.46;100.00
7662;BME280;30314;48.184;11.510;2023-11-21T12:08:01;95508.59;;;8.43;100.00
7662;BME280;30314;48.184;11.510;2023-11-21T12:10:33;95493.88;;;8.42;100.00
7662;BME280;30314;48.184;11.510;2023-11-21T12:13:05;95510.06;;;8.55;100.00
7662;BME280;30314;48.184;11.510;2023-11-21T12:15:34;95517.41;;;8.53;100.00
7662;BME280;30314;48.184;11.510;2023-11-21T12:18:01;95493.41;;;8.35;100.00
7662;BME280;30314;48.184;11.510;2023-11-21T12:20:28;95515.34;;;8.50;100.00
7662;BME280;30314;48.184;11.510;2023-11-21T12:22:57;95519.63;;;8.45;100.00
7662;BME280;30314;48.184;11.510;2023-11-21T12:25:29;95490.38;;;8.23;100.00
7662;BME280;30314;48.184;11.510;2023-11-21T12:27:57;95515.59;;;8.29;100.00
7662;BME280;30314;48.184;11.510;2023-11-21T12:30:26;95521.13;;;8.27;100.00
7662;BME280;30314;48.184;11.510;2023-11-21T12:32:55;95514.38;;;8.16;100.00
7662;BME280;30314;48.184;11.510;2023-11-21T12:35:24;95514.34;;;8.21;100.00
7662;BME280;30314;48.184;11.510;2023-11-21T12:37:52;95506.31;;;8.07;100.00
7662;BME280;30314;48.184;11.510;2023-11-21T12:40:19;95508.19;;;8.07;100.00
7662;BME280;30314;48.184;11.510;2023-11-21T12:42:47;95500.28;;;8.07;100.00
7662;BME280;30314;48.184;11.510;2023-11-21T12:45:24;95516.97;;;8.21;100.00
7662;BME280;30314;48.184;11.510;2023-11-21T12:47:57;95507.31;;;8.11;100.00
7662;BME280;30314;48.184;11.510;2023-11-21T12:50:28;95520.94;;;8.18;100.00
7662;BME280;30314;48.184;11.510;2023-11-21T12:53:13;95511.19;;;8.19;100.00
7662;BME280;30314;48.184;11.510;2023-11-21T12:55:43;95518.75;;;8.26;100.00
7662;BME280;30314;48.184;11.510;2023-11-21T12:58:20;95515.34;;;8.25;100.00
7662;BME280;30314;48.184;11.510;2023-11-21T13:00:48;95522.66;;;8.34;100.00
7662;BME280;30314;48.184;11.510;2023-11-21T13:03:16;95516.69;;;8.23;100.00
7662;BME280;30314;48.184;11.510;2023-11-21T13:05:46;95521.63;;;8.29;100.00
7662;BME280;30314;48.184;11.510;2023-11-21T13:08:15;95526.63;;;8.31;100.00
7662;BME280;30314;48.184;11.510;2023-11-21T13:10:50;95525.03;;;8.30;100.00
7662;BME280;30314;48.184;11.510;2023-11-21T13:13:18;95523.97;;;8.31;100.00
7662;BME280;30314;48.184;11.510;2023-11-21T13:15:52;95521.44;;;8.21;100.00